Time;durP1;ratioP1;P1;durP2;ratioP2;P2;SDS_P1;SDS_P2;PMS_P1;PMS_P2;Temp;Humidity;BMP_temperature;BMP_pressure;BME280_temperature;BME280_humidity;BME280_pressure;Samples;Min_cycle;Max_cycle;Signal;HPM_P1;HPM_P2
2022/03/26 00:00:06;;;;;;;84.45;33.03;;;;;;;10.16;51.40;102588.81;5068843;28;20037;-63
2022/03/26 00:02:44;;;;;;;85.85;33.80;;;;;;;10.06;52.01;102598.38;5091104;27;20381;-63
2022/03/26 00:05:11;;;;;;;81.45;32.78;;;;;;;10.18;51.48;102600.16;5089103;28;20048;-63
2022/03/26 00:07:38;;;;;;;72.32;32.00;;;;;;;10.02;52.77;102590.72;5087442;28;20044;-63
2022/03/26 00:10:06;;;;;;;78.60;32.88;;;;;;;9.80;53.12;102585.09;5090203;28;20044;-63
2022/03/26 00:12:32;;;;;;;85.57;34.17;;;;;;;9.73;52.74;102588.25;5056004;28;20055;-63
2022/03/26 00:14:59;;;;;;;87.78;34.28;;;;;;;9.70;53.09;102591.13;5072608;28;20119;-64
2022/03/26 00:17:26;;;;;;;75.80;34.75;;;;;;;9.73;52.94;102581.19;5089278;28;20044;-64
2022/03/26 00:19:53;;;;;;;86.40;34.22;;;;;;;9.66;53.30;102587.84;5088739;28;20032;-63
2022/03/26 00:22:21;;;;;;;79.32;34.10;;;;;;;9.68;53.28;102590.34;5072539;28;20079;-63
2022/03/26 00:24:48;;;;;;;80.00;32.47;;;;;;;9.62;53.36;102583.66;5072304;28;20053;-63
2022/03/26 00:27:15;;;;;;;82.82;33.08;;;;;;;9.66;53.64;102587.84;5088872;28;20070;-64
2022/03/26 00:29:42;;;;;;;84.15;34.50;;;;;;;9.60;53.90;102590.88;5072234;28;20047;-63
2022/03/26 00:32:09;;;;;;;82.75;33.55;;;;;;;9.56;54.11;102587.59;5090149;28;20393;-63
2022/03/26 00:34:36;;;;;;;81.13;34.70;;;;;;;9.65;53.87;102585.28;5087910;28;20052;-64
2022/03/26 00:37:03;;;;;;;89.25;35.15;;;;;;;9.66;54.20;102585.19;5088926;28;20074;-63
2022/03/26 00:39:31;;;;;;;84.93;33.92;;;;;;;9.53;53.67;102579.88;5068508;28;20151;-63
2022/03/26 00:41:58;;;;;;;85.00;34.88;;;;;;;9.48;54.09;102583.75;5068300;28;20061;-63
2022/03/26 00:44:25;;;;;;;78.88;33.70;;;;;;;9.45;54.28;102574.22;5085001;28;20408;-63
2022/03/26 00:46:51;;;;;;;76.55;34.17;;;;;;;9.48;54.80;102581.09;5068248;28;20041;-63
2022/03/26 00:49:19;;;;;;;82.30;34.95;;;;;;;9.46;54.57;102578.56;5085654;28;20447;-63
2022/03/26 00:51:46;;;;;;;82.00;34.25;;;;;;;9.52;54.91;102574.66;5089680;28;20047;-63
2022/03/26 00:54:13;;;;;;;82.53;34.58;;;;;;;9.57;55.30;102576.03;5089438;28;20040;-63
2022/03/26 00:56:41;;;;;;;79.57;33.75;;;;;;;9.50;55.13;102569.47;5089649;28;20044;-63
2022/03/26 00:59:08;;;;;;;93.18;33.10;;;;;;;9.43;55.17;102562.88;5089245;28;20089;-63
2022/03/26 01:01:35;;;;;;;77.88;35.30;;;;;;;9.32;55.42;102574.16;5089289;28;20045;-63
2022/03/26 01:04:03;;;;;;;78.03;34.00;;;;;;;9.23;56.45;102561.53;5088005;28;20036;-64
2022/03/26 01:06:30;;;;;;;80.70;34.92;;;;;;;9.26;56.49;102564.00;5087808;28;20044;-64
2022/03/26 01:08:57;;;;;;;78.05;33.80;;;;;;;9.05;56.49;102562.75;5087975;28;20048;-63
2022/03/26 01:11:23;;;;;;;77.93;34.55;;;;;;;8.85;56.70;102564.88;5087873;28;20044;-63
2022/03/26 01:13:53;;;;;;;68.20;32.78;;;;;;;8.76;57.09;102566.31;5077259;28;20047;-63
2022/03/26 01:16:19;;;;;;;75.30;33.95;;;;;;;8.60;57.98;102574.38;5074676;28;20044;-63
2022/03/26 01:18:47;;;;;;;75.20;34.38;;;;;;;8.60;57.64;102569.09;5074290;28;20061;-63
2022/03/26 01:21:13;;;;;;;76.45;33.22;;;;;;;8.52;57.36;102568.72;5065053;28;20037;-63
2022/03/26 01:23:41;;;;;;;81.85;34.80;;;;;;;8.57;58.22;102565.78;5054505;28;20139;-63
2022/03/26 01:26:08;;;;;;;74.35;33.13;;;;;;;8.54;58.82;102564.16;5075235;28;20053;-64
2022/03/26 01:28:34;;;;;;;83.95;33.95;;;;;;;8.49;58.70;102568.03;5072655;28;20045;-64
2022/03/26 01:31:02;;;;;;;90.32;34.80;;;;;;;8.49;59.11;102566.25;5057661;28;20040;-63
2022/03/26 01:33:28;;;;;;;74.50;33.88;;;;;;;8.46;58.79;102558.53;5057704;28;20044;-63
2022/03/26 01:35:55;;;;;;;73.07;34.42;;;;;;;8.20;58.46;102565.38;5057504;28;20040;-64
2022/03/26 01:38:22;;;;;;;76.70;34.35;;;;;;;8.17;59.02;102557.66;5073601;28;20056;-64
2022/03/26 01:40:49;;;;;;;80.60;34.70;;;;;;;8.02;59.69;102562.94;5073787;28;20488;-63
2022/03/26 01:43:16;;;;;;;76.43;35.28;;;;;;;8.10;59.73;102558.97;5075381;28;20055;-63
2022/03/26 01:45:43;;;;;;;86.30;35.13;;;;;;;8.15;60.43;102552.44;5074238;28;20052;-63
2022/03/26 01:48:10;;;;;;;84.13;34.10;;;;;;;8.00;59.38;102563.94;5074068;28;20045;-63
2022/03/26 01:50:39;;;;;;;84.32;34.78;;;;;;;8.04;59.78;102562.81;5073390;28;20048;-63
2022/03/26 01:53:06;;;;;;;88.47;35.08;;;;;;;8.02;59.96;102567.34;5075224;28;20036;-63
2022/03/26 01:55:33;;;;;;;83.80;34.75;;;;;;;8.03;60.45;102566.41;5073693;28;20048;-63
2022/03/26 01:57:59;;;;;;;81.70;32.92;;;;;;;7.86;60.30;102567.44;5077111;28;20045;-63
2022/03/26 02:00:28;;;;;;;85.53;35.13;;;;;;;7.83;60.11;102565.81;5084698;28;20041;-63
2022/03/26 02:02:55;;;;;;;90.45;34.50;;;;;;;7.80;61.17;102571.25;5080924;28;20040;-63
2022/03/26 02:05:22;;;;;;;82.32;32.33;;;;;;;7.80;60.51;102573.06;5075246;28;20033;-63
2022/03/26 02:07:49;;;;;;;77.97;34.83;;;;;;;7.79;60.85;102564.28;5059337;28;20051;-63
2022/03/26 02:10:18;;;;;;;80.53;34.08;;;;;;;7.81;60.93;102566.84;5073453;28;20048;-63
2022/03/26 02:12:47;;;;;;;82.65;34.85;;;;;;;7.71;61.19;102565.69;5074619;28;20398;-63
2022/03/26 02:15:15;;;;;;;86.38;34.83;;;;;;;7.67;61.11;102565.84;5074909;28;20075;-64
2022/03/26 02:17:42;;;;;;;89.85;34.05;;;;;;;7.65;61.47;102575.66;5074491;28;20044;-63
2022/03/26 02:20:11;;;;;;;77.68;33.95;;;;;;;7.67;61.55;102565.00;5074412;28;20045;-64
2022/03/26 02:22:38;;;;;;;78.43;35.63;;;;;;;7.62;62.06;102570.59;5074621;28;20585;-64
2022/03/26 02:25:08;;;;;;;75.93;34.65;;;;;;;7.68;61.36;102562.28;5072095;28;20055;-63
2022/03/26 02:27:35;;;;;;;81.65;36.05;;;;;;;7.69;62.33;102573.69;5073523;28;20040;-64
2022/03/26 02:30:04;;;;;;;75.30;33.33;;;;;;;7.78;62.46;102574.94;5072964;28;20120;-63
2022/03/26 02:32:32;;;;;;;82.82;34.05;;;;;;;7.88;61.89;102571.66;5074431;28;20412;-63
2022/03/26 02:35:00;;;;;;;80.25;34.42;;;;;;;7.89;61.86;102572.50;5073880;28;20044;-64
2022/03/26 02:37:29;;;;;;;77.97;34.95;;;;;;;7.83;62.14;102571.09;5072243;28;20408;-63
2022/03/26 02:39:56;;;;;;;84.28;35.55;;;;;;;7.90;62.02;102576.03;5074006;28;20040;-64
2022/03/26 02:42:23;;;;;;;82.90;34.60;;;;;;;7.84;62.84;102571.94;5089592;28;20435;-64
2022/03/26 02:44:50;;;;;;;85.28;33.90;;;;;;;7.69;62.15;102577.22;5072757;28;20047;-64
2022/03/26 02:47:17;;;;;;;84.90;34.25;;;;;;;7.74;61.95;102566.34;5073783;28;20052;-63
2022/03/26 02:49:44;;;;;;;79.72;35.40;;;;;;;7.69;62.52;102569.28;5072065;28;20053;-63
2022/03/26 02:52:10;;;;;;;82.05;35.58;;;;;;;7.58;62.88;102576.13;5072574;28;20511;-64
2022/03/26 02:54:37;;;;;;;82.45;35.08;;;;;;;7.60;62.89;102572.44;5056440;28;20052;-64
2022/03/26 02:57:04;;;;;;;80.05;36.63;;;;;;;7.67;62.82;102565.00;5072492;28;20102;-63
2022/03/26 02:59:31;;;;;;;78.85;34.80;;;;;;;7.72;63.25;102562.13;5072632;28;20485;-64
2022/03/26 03:01:58;;;;;;;84.90;35.38;;;;;;;7.76;62.49;102563.63;5071864;28;20063;-64
2022/03/26 03:04:25;;;;;;;82.75;34.65;;;;;;;7.71;63.04;102557.75;5071652;28;20041;-63
2022/03/26 03:06:52;;;;;;;79.93;35.58;;;;;;;7.56;62.83;102563.00;5073352;28;20041;-64
2022/03/26 03:09:19;;;;;;;88.05;35.33;;;;;;;7.31;64.13;102566.22;5052707;28;20051;-64
2022/03/26 03:11:47;;;;;;;90.22;36.15;;;;;;;7.25;63.39;102562.13;5051972;28;20044;-65
2022/03/26 03:14:13;;;;;;;85.47;36.00;;;;;;;7.26;63.85;102563.84;5035990;28;20071;-64
2022/03/26 03:16:41;;;;;;;80.30;34.72;;;;;;;7.38;63.13;102556.16;5052180;28;20375;-63
2022/03/26 03:19:08;;;;;;;88.15;35.85;;;;;;;7.51;63.65;102565.06;5066790;28;20044;-63
2022/03/26 03:21:35;;;;;;;86.63;37.45;;;;;;;7.35;63.57;102565.13;5073082;28;20033;-63
2022/03/26 03:24:01;;;;;;;82.90;35.60;;;;;;;7.21;63.57;102567.69;5072063;28;20136;-63
2022/03/26 03:26:29;;;;;;;84.88;35.20;;;;;;;7.20;63.85;102566.81;5073207;28;20408;-63
2022/03/26 03:28:57;;;;;;;84.05;35.90;;;;;;;7.11;64.69;102565.59;5055544;28;20488;-63
2022/03/26 03:31:25;;;;;;;88.80;35.72;;;;;;;7.10;64.78;102574.41;5073266;28;20047;-63
2022/03/26 03:33:52;;;;;;;79.65;35.95;;;;;;;7.09;64.29;102569.22;5064408;28;20071;-63
2022/03/26 03:36:19;;;;;;;98.57;36.40;;;;;;;7.10;64.65;102566.50;5071670;28;20043;-64
2022/03/26 03:38:46;;;;;;;86.85;36.97;;;;;;;7.13;64.36;102572.53;5073090;28;20074;-63
2022/03/26 03:41:13;;;;;;;87.88;37.70;;;;;;;7.15;64.31;102574.19;5071803;28;20116;-63
2022/03/26 03:43:39;;;;;;;88.45;37.97;;;;;;;7.25;64.30;102566.56;5072731;28;20041;-63
2022/03/26 03:46:06;;;;;;;91.70;37.47;;;;;;;7.26;64.23;102568.28;5071892;28;20451;-64
2022/03/26 03:48:33;;;;;;;84.63;35.35;;;;;;;7.44;63.58;102566.34;5071601;28;20509;-63
2022/03/26 03:51:00;;;;;;;94.65;37.88;;;;;;;7.55;63.09;102573.66;5071790;28;20496;-63
2022/03/26 03:53:26;;;;;;;76.25;35.20;;;;;;;7.62;64.32;102573.22;5073115;28;20118;-63
2022/03/26 03:55:53;;;;;;;92.57;38.00;;;;;;;7.60;63.33;102580.38;5072922;28;20045;-63
2022/03/26 03:58:20;;;;;;;84.13;35.85;;;;;;;7.58;64.08;102576.97;5071480;28;20045;-63
2022/03/26 04:00:47;;;;;;;88.35;36.25;;;;;;;7.57;63.69;102572.63;5088484;28;20601;-63
2022/03/26 04:03:15;;;;;;;84.53;38.15;;;;;;;7.50;63.57;102574.78;5071530;28;20158;-63
2022/03/26 04:05:43;;;;;;;77.72;35.95;;;;;;;7.50;63.55;102573.94;5070877;28;20036;-63
2022/03/26 04:08:10;;;;;;;89.47;36.08;;;;;;;7.41;63.71;102577.94;5071621;28;20107;-64
2022/03/26 04:10:37;;;;;;;80.25;37.45;;;;;;;7.33;63.66;102590.75;5073208;28;20048;-64
2022/03/26 04:13:04;;;;;;;95.38;37.60;;;;;;;7.22;64.59;102577.28;5045084;28;20072;-63
2022/03/26 04:15:31;;;;;;;80.68;37.60;;;;;;;7.21;63.36;102581.72;5074406;28;20048;-63
2022/03/26 04:17:57;;;;;;;85.28;37.58;;;;;;;7.25;64.35;102582.41;5072895;28;20568;-63
2022/03/26 04:20:24;;;;;;;75.82;37.08;;;;;;;7.29;64.55;102582.16;5071388;28;20041;-63
2022/03/26 04:22:51;;;;;;;87.18;37.20;;;;;;;7.13;64.45;102577.81;5071381;28;20041;-63
2022/03/26 04:25:18;;;;;;;80.90;37.50;;;;;;;6.89;64.50;102587.03;5071519;28;20044;-63
2022/03/26 04:27:47;;;;;;;84.95;37.65;;;;;;;6.72;65.59;102585.31;5072638;28;20041;-63
2022/03/26 04:30:14;;;;;;;88.57;37.00;;;;;;;6.68;65.39;102585.59;5070940;28;20558;-63
2022/03/26 04:32:41;;;;;;;84.95;36.95;;;;;;;6.74;65.13;102585.22;5062960;28;20086;-63
2022/03/26 04:35:09;;;;;;;86.07;37.60;;;;;;;6.82;65.31;102587.44;5071313;28;20040;-63
2022/03/26 04:37:37;;;;;;;83.32;37.40;;;;;;;6.79;65.62;102585.00;5072298;28;20053;-63
2022/03/26 04:40:05;;;;;;;82.57;36.80;;;;;;;6.66;65.74;102580.38;5054759;28;20115;-64
2022/03/26 04:42:32;;;;;;;88.78;37.53;;;;;;;6.47;66.33;102579.66;5070946;28;20036;-63
2022/03/26 04:44:58;;;;;;;93.05;38.08;;;;;;;6.38;66.60;102577.53;5071300;28;20048;-63
2022/03/26 04:47:26;;;;;;;90.53;37.75;;;;;;;6.45;66.74;102576.28;5072438;28;20553;-63
2022/03/26 04:49:52;;;;;;;85.78;36.65;;;;;;;6.52;66.24;102575.00;5074507;28;20420;-63
2022/03/26 04:52:19;;;;;;;91.15;37.03;;;;;;;6.53;65.73;102580.19;5058594;28;20094;-63
2022/03/26 04:54:48;;;;;;;85.90;37.22;;;;;;;6.44;67.04;102572.78;5076127;28;20501;-63
2022/03/26 04:57:17;;;;;;;82.80;36.72;;;;;;;6.49;66.25;102573.41;5074307;28;20135;-63
2022/03/26 04:59:44;;;;;;;86.82;38.10;;;;;;;6.50;66.28;102582.16;5075901;28;20041;-63
2022/03/26 05:02:12;;;;;;;99.90;39.25;;;;;;;6.32;66.65;102584.81;5070668;28;20095;-63
2022/03/26 05:04:39;;;;;;;92.13;39.22;;;;;;;6.31;66.68;102585.78;5052944;28;20511;-65
2022/03/26 05:09:54;;;;;;;93.75;38.65;;;;;;;6.23;66.88;102582.69;5041159;28;20055;-64
2022/03/26 05:12:21;;;;;;;93.07;38.05;;;;;;;6.25;67.55;102585.22;5055856;28;20505;-64
2022/03/26 05:14:47;;;;;;;93.43;39.83;;;;;;;6.26;67.77;102585.16;5054848;28;20044;-64
2022/03/26 05:17:14;;;;;;;91.13;37.50;;;;;;;6.15;67.67;102596.25;5054518;28;20044;-63
2022/03/26 05:19:41;;;;;;;102.30;38.55;;;;;;;6.20;68.05;102596.00;5073773;28;20053;-63
2022/03/26 05:22:08;;;;;;;88.10;38.20;;;;;;;6.20;67.42;102589.88;5057887;28;20068;-63
2022/03/26 05:24:34;;;;;;;97.40;40.38;;;;;;;6.19;67.59;102598.75;5074540;28;20055;-65
2022/03/26 05:27:01;;;;;;;91.30;40.53;;;;;;;6.12;68.07;102606.94;5074384;28;20094;-63
2022/03/26 05:29:30;;;;;;;96.32;38.95;;;;;;;5.91;68.63;102598.34;5075258;28;20052;-63
2022/03/26 05:31:59;;;;;;;101.28;38.90;;;;;;;5.92;68.43;102601.84;5055782;28;20068;-64
2022/03/26 05:34:26;;;;;;;91.78;39.60;;;;;;;5.97;68.49;102605.13;5057410;28;20393;-64
2022/03/26 05:36:52;;;;;;;100.45;40.17;;;;;;;6.05;68.38;102616.09;5054145;28;20067;-64
2022/03/26 05:39:19;;;;;;;98.85;39.45;;;;;;;6.00;68.97;102610.22;5055177;28;20565;-64
2022/03/26 05:41:46;;;;;;;90.95;38.15;;;;;;;6.00;68.38;102620.75;5070789;28;20053;-64
2022/03/26 05:44:13;;;;;;;95.65;39.00;;;;;;;6.09;68.59;102612.41;5055083;28;20041;-64
2022/03/26 05:46:40;;;;;;;91.88;37.88;;;;;;;6.19;68.70;102622.47;5054353;28;20048;-64
2022/03/26 05:49:06;;;;;;;87.57;38.70;;;;;;;6.24;68.40;102618.66;5069517;28;20037;-64
2022/03/26 05:51:33;;;;;;;104.13;40.58;;;;;;;6.26;68.31;102622.06;5074869;28;20409;-64
2022/03/26 05:54:00;;;;;;;99.30;39.60;;;;;;;6.25;69.00;102622.13;5074021;28;20050;-63
2022/03/26 05:56:26;;;;;;;104.47;39.33;;;;;;;6.30;68.00;102631.50;5073927;28;20090;-64
2022/03/26 05:58:53;;;;;;;91.90;39.10;;;;;;;6.35;67.82;102631.28;5073442;28;20041;-63
2022/03/26 06:01:22;;;;;;;105.10;39.60;;;;;;;6.38;68.13;102628.47;5073355;28;20052;-63
2022/03/26 06:03:49;;;;;;;97.22;39.55;;;;;;;6.29;68.35;102639.47;5070375;28;20102;-62
2022/03/26 06:06:16;;;;;;;104.85;40.67;;;;;;;6.38;68.19;102643.44;5074530;28;20052;-64
2022/03/26 06:08:43;;;;;;;91.78;39.28;;;;;;;6.36;67.97;102642.66;5073076;28;20749;-63
2022/03/26 06:11:10;;;;;;;99.47;40.55;;;;;;;6.33;68.72;102649.81;5090767;28;20044;-63
2022/03/26 06:13:38;;;;;;;101.18;42.40;;;;;;;6.41;68.45;102651.19;5056883;28;20048;-65
2022/03/26 06:16:05;;;;;;;101.30;39.90;;;;;;;6.37;69.02;102653.13;5073897;28;20049;-65
2022/03/26 06:18:33;;;;;;;97.07;39.83;;;;;;;6.51;68.41;102652.38;5073567;28;20497;-64
2022/03/26 06:21:01;;;;;;;96.47;42.60;;;;;;;6.60;68.43;102658.97;5056656;28;20041;-65
2022/03/26 06:23:28;;;;;;;99.20;39.67;;;;;;;6.65;68.08;102652.50;5073289;28;20062;-64
2022/03/26 06:25:54;;;;;;;97.70;40.70;;;;;;;6.64;68.48;102661.38;5075538;28;20036;-62
2022/03/26 06:28:21;;;;;;;116.88;40.47;;;;;;;6.81;68.36;102659.63;5078910;28;20040;-64
2022/03/26 06:30:51;;;;;;;95.63;41.63;;;;;;;6.85;68.72;102659.34;5074120;28;20094;-63
2022/03/26 06:33:18;;;;;;;102.47;42.63;;;;;;;7.05;67.77;102658.28;5072379;28;20067;-64
2022/03/26 06:35:45;;;;;;;89.88;40.80;;;;;;;7.21;67.65;102662.72;5072612;28;20068;-63
2022/03/26 06:38:15;;;;;;;100.43;41.90;;;;;;;7.37;67.32;102668.84;5074307;28;20123;-63
2022/03/26 06:40:42;;;;;;;123.80;46.00;;;;;;;7.48;66.73;102670.88;5073031;28;20094;-64
2022/03/26 06:43:09;;;;;;;100.43;42.72;;;;;;;7.54;65.96;102665.25;5055980;28;20041;-64
2022/03/26 06:45:36;;;;;;;103.85;43.00;;;;;;;7.66;65.90;102666.34;5073881;28;20401;-62
2022/03/26 06:48:03;;;;;;;99.72;41.92;;;;;;;7.73;65.23;102667.72;5051947;28;20045;-63
2022/03/26 06:50:30;;;;;;;104.55;43.65;;;;;;;7.83;64.64;102671.50;5052430;28;20099;-63
2022/03/26 06:52:58;;;;;;;103.85;43.70;;;;;;;7.81;64.34;102670.75;5053909;28;20033;-64
2022/03/26 06:55:25;;;;;;;92.05;41.92;;;;;;;7.92;64.81;102671.91;5052562;28;20102;-66
2022/03/26 06:57:52;;;;;;;101.40;43.65;;;;;;;7.99;64.62;102668.81;5054364;28;20111;-63
2022/03/26 07:00:19;;;;;;;99.55;44.67;;;;;;;8.09;64.42;102669.13;5043648;28;20040;-63
2022/03/26 07:02:45;;;;;;;105.07;45.83;;;;;;;8.14;64.17;102674.16;5071900;28;20404;-64
2022/03/26 07:05:12;;;;;;;116.15;42.85;;;;;;;8.24;64.87;102676.16;5053468;28;20044;-63
2022/03/26 07:07:40;;;;;;;104.68;43.53;;;;;;;8.32;64.80;102677.50;5072186;28;20123;-64
2022/03/26 07:10:07;;;;;;;105.72;45.83;;;;;;;8.44;64.16;102679.41;5055110;28;20094;-63
2022/03/26 07:12:34;;;;;;;115.40;45.72;;;;;;;8.53;63.42;102686.81;5071932;28;20036;-64
2022/03/26 07:15:07;;;;;;;108.63;45.60;;;;;;;8.52;63.39;102694.84;5073190;28;20045;-63
2022/03/26 07:17:38;;;;;;;115.00;45.05;;;;;;;8.63;62.28;102690.56;5073259;28;20068;-63
2022/03/26 07:20:05;;;;;;;104.87;44.67;;;;;;;8.82;62.00;102692.97;5071716;28;20441;-64
2022/03/26 07:22:32;;;;;;;104.70;44.22;;;;;;;8.94;61.54;102695.78;5071975;28;20129;-63
2022/03/26 07:25:00;;;;;;;119.13;46.20;;;;;;;9.00;61.88;102695.38;5072024;28;20207;-63
2022/03/26 07:27:35;;;;;;;111.43;45.60;;;;;;;9.01;60.98;102697.94;5071935;28;20036;-63
2022/03/26 07:30:05;;;;;;;101.63;43.53;;;;;;;9.19;60.32;102693.28;5072199;28;20048;-64
2022/03/26 07:32:33;;;;;;;118.30;45.80;;;;;;;9.27;59.96;102697.25;5072223;28;20053;-63
2022/03/26 07:35:00;;;;;;;108.53;46.40;;;;;;;9.30;59.75;102697.91;5072608;28;20041;-63
2022/03/26 07:37:27;;;;;;;113.60;45.35;;;;;;;9.24;60.04;102703.59;5088921;28;20047;-63
2022/03/26 07:39:54;;;;;;;110.97;46.42;;;;;;;9.37;60.20;102701.03;5073189;28;20385;-63
2022/03/26 07:42:21;;;;;;;103.70;46.00;;;;;;;9.36;60.24;102704.59;5054765;28;20050;-63
2022/03/26 07:44:48;;;;;;;113.07;45.95;;;;;;;9.60;59.44;102703.03;5072948;28;20169;-62
2022/03/26 07:47:14;;;;;;;113.28;45.85;;;;;;;9.71;58.67;102709.41;5071872;28;20485;-62
2022/03/26 07:49:41;;;;;;;100.43;45.33;;;;;;;9.77;58.19;102695.78;5071493;28;20051;-63
2022/03/26 07:52:08;;;;;;;111.72;46.60;;;;;;;9.83;58.37;102700.66;5071844;28;20131;-62
2022/03/26 07:54:35;;;;;;;98.90;43.85;;;;;;;9.94;57.14;102703.44;5072841;28;20044;-63
2022/03/26 07:57:02;;;;;;;112.72;46.53;;;;;;;9.99;56.72;102695.22;5054972;28;20481;-63
2022/03/26 07:59:28;;;;;;;111.80;44.40;;;;;;;10.09;56.39;102700.72;5088481;28;20044;-63
2022/03/26 08:01:55;;;;;;;100.45;43.65;;;;;;;10.10;55.93;102699.78;5071132;28;20060;-67
2022/03/26 08:04:22;;;;;;;110.50;45.35;;;;;;;10.17;55.45;102699.28;5032850;28;20045;-63
2022/03/26 08:06:49;;;;;;;106.20;45.15;;;;;;;10.29;55.18;102702.88;5052384;28;20045;-64
2022/03/26 08:09:16;;;;;;;112.80;45.00;;;;;;;10.40;55.25;102694.22;5051611;28;20056;-64
2022/03/26 08:11:44;;;;;;;110.32;44.83;;;;;;;10.48;54.91;102701.69;5052634;28;20511;-64
2022/03/26 08:14:12;;;;;;;108.38;46.03;;;;;;;10.53;54.87;102704.84;5052526;28;20033;-64
2022/03/26 08:16:40;;;;;;;106.22;44.22;;;;;;;10.64;54.94;102702.31;5052863;28;20055;-64
2022/03/26 08:19:07;;;;;;;100.53;46.10;;;;;;;10.80;54.50;102703.88;5049889;28;20390;-64
2022/03/26 08:21:35;;;;;;;107.53;46.78;;;;;;;10.95;54.44;102700.13;5072057;28;20044;-63
2022/03/26 08:24:02;;;;;;;109.20;46.25;;;;;;;10.99;53.84;102709.59;5075517;28;20123;-64
2022/03/26 08:26:31;;;;;;;104.65;44.05;;;;;;;11.33;52.87;102707.16;5075152;28;20505;-63
2022/03/26 08:29:00;;;;;;;106.78;44.10;;;;;;;11.52;52.24;102707.53;5076499;28;20136;-63
2022/03/26 08:31:29;;;;;;;105.78;45.08;;;;;;;11.65;51.71;102709.31;5073453;28;20126;-63
2022/03/26 08:33:59;;;;;;;111.65;46.58;;;;;;;11.80;51.45;102705.50;5075200;28;20190;-64
2022/03/26 08:36:26;;;;;;;109.50;44.35;;;;;;;12.01;50.74;102697.75;5053847;28;20095;-64
2022/03/26 08:38:54;;;;;;;104.45;44.80;;;;;;;12.26;50.17;102703.84;5071875;28;20103;-64
2022/03/26 08:41:22;;;;;;;109.50;44.97;;;;;;;12.33;49.76;102710.41;5055819;28;20041;-63
2022/03/26 08:43:50;;;;;;;106.07;45.60;;;;;;;12.37;49.71;102700.38;5056128;28;20040;-63
2022/03/26 08:46:19;;;;;;;94.22;44.35;;;;;;;12.39;48.98;102709.97;5057335;28;20041;-63
2022/03/26 08:48:48;;;;;;;111.65;47.00;;;;;;;12.54;48.59;102713.25;5076541;28;20045;-64
2022/03/26 08:51:15;;;;;;;104.95;46.15;;;;;;;12.68;48.16;102709.53;5076057;28;20102;-64
2022/03/26 08:53:42;;;;;;;121.95;47.17;;;;;;;12.88;48.69;102715.94;5022145;28;20045;-63
2022/03/26 08:56:10;;;;;;;103.43;45.80;;;;;;;13.09;48.13;102712.53;5049122;28;20071;-63
2022/03/26 08:58:37;;;;;;;105.80;48.28;;;;;;;13.14;48.14;102713.03;5058754;28;20052;-64
2022/03/26 09:01:07;;;;;;;109.50;45.85;;;;;;;13.25;46.88;102713.84;5074512;28;20060;-63
2022/03/26 09:03:37;;;;;;;111.40;46.33;;;;;;;13.56;47.05;102713.22;5072836;28;20059;-64
2022/03/26 09:06:07;;;;;;;100.47;46.03;;;;;;;13.56;46.26;102716.72;5058017;28;20075;-64
2022/03/26 09:08:35;;;;;;;103.03;46.22;;;;;;;13.78;46.48;102710.44;5075683;28;20496;-64
2022/03/26 09:11:04;;;;;;;101.78;46.58;;;;;;;13.92;45.84;102721.81;5074542;28;20515;-64
2022/03/26 09:13:31;;;;;;;111.60;46.30;;;;;;;14.10;45.32;102717.59;5091578;28;20044;-64
2022/03/26 09:15:58;;;;;;;115.82;45.97;;;;;;;14.24;45.31;102719.09;5074595;28;20078;-64
2022/03/26 09:18:26;;;;;;;105.13;45.35;;;;;;;14.56;43.34;102721.69;5086994;28;20061;-64
2022/03/26 09:20:53;;;;;;;103.63;45.95;;;;;;;14.99;42.38;102717.16;5069624;28;20037;-64
2022/03/26 09:23:20;;;;;;;102.90;44.83;;;;;;;16.00;40.62;102719.72;5089073;28;20099;-64
2022/03/26 09:25:47;;;;;;;105.88;44.75;;;;;;;16.78;38.67;102724.91;5068229;28;20119;-64
2022/03/26 09:28:14;;;;;;;104.25;44.42;;;;;;;17.60;37.40;102718.69;5075286;28;20056;-64
2022/03/26 09:30:40;;;;;;;99.72;44.03;;;;;;;18.47;35.15;102718.94;5071193;28;20385;-64
2022/03/26 09:33:07;;;;;;;103.82;44.88;;;;;;;18.60;34.65;102723.88;5073283;28;20040;-64
2022/03/26 09:35:35;;;;;;;99.88;45.58;;;;;;;19.55;33.17;102718.38;5064728;28;20135;-65
2022/03/26 09:38:02;;;;;;;102.60;45.22;;;;;;;20.67;31.36;102721.41;5074289;28;20400;-64
2022/03/26 09:40:29;;;;;;;88.82;46.55;;;;;;;21.55;30.05;102719.50;5067313;28;20056;-65
2022/03/26 09:42:56;;;;;;;99.43;45.92;;;;;;;21.69;29.99;102716.00;5074851;28;20114;-62
2022/03/26 09:45:23;;;;;;;96.63;47.28;;;;;;;22.08;28.76;102714.16;5066074;28;20062;-63
2022/03/26 09:47:52;;;;;;;99.18;46.55;;;;;;;22.40;28.17;102713.88;5089713;28;20497;-64
2022/03/26 09:50:21;;;;;;;86.60;44.90;;;;;;;22.74;27.83;102717.91;5085762;28;20055;-63
2022/03/26 09:52:50;;;;;;;94.10;44.88;;;;;;;23.15;26.82;102708.44;5093743;28;20074;-63
2022/03/26 09:55:17;;;;;;;93.93;46.22;;;;;;;22.37;27.91;102710.72;5061945;28;20098;-63
2022/03/26 09:57:44;;;;;;;81.63;42.08;;;;;;;22.29;28.13;102708.94;5074744;28;20044;-64
2022/03/26 10:00:13;;;;;;;92.78;42.63;;;;;;;23.43;26.86;102713.97;5074218;28;20113;-64
2022/03/26 10:02:41;;;;;;;86.60;43.88;;;;;;;23.92;25.60;102718.66;5073825;28;20134;-63
2022/03/26 10:05:08;;;;;;;86.18;43.60;;;;;;;24.73;24.91;102716.50;5071227;28;20087;-64
2022/03/26 10:07:35;;;;;;;95.20;45.10;;;;;;;25.12;24.15;102717.69;5074394;28;20054;-64
2022/03/26 10:10:03;;;;;;;100.13;47.38;;;;;;;25.02;24.54;102720.81;5073423;28;20075;-63
2022/03/26 10:12:31;;;;;;;91.28;45.45;;;;;;;24.83;24.52;102720.53;5073451;28;20056;-63
2022/03/26 10:15:00;;;;;;;90.20;46.42;;;;;;;25.62;23.79;102712.84;5073301;28;20037;-63
2022/03/26 10:17:34;;;;;;;88.90;45.00;;;;;;;25.42;23.90;102710.09;5074794;28;20048;-63
2022/03/26 10:20:06;;;;;;;93.93;44.35;;;;;;;25.34;23.53;102707.56;5062948;28;20056;-63
2022/03/26 10:22:40;;;;;;;70.35;37.92;;;;;;;25.14;24.07;102707.47;5074394;28;20094;-64
2022/03/26 10:25:13;;;;;;;74.55;38.13;;;;;;;25.85;22.63;102701.56;5063930;28;20036;-64
2022/03/26 10:27:43;;;;;;;73.85;37.55;;;;;;;27.21;21.41;102713.59;5056800;28;20045;-63
2022/03/26 10:30:12;;;;;;;75.07;34.00;;;;;;;27.67;20.32;102704.31;5072475;28;20041;-64
2022/03/26 10:32:45;;;;;;;64.10;31.83;;;;;;;27.57;19.87;102699.34;5074192;28;20055;-64
2022/03/26 10:35:16;;;;;;;55.78;29.13;;;;;;;25.93;21.97;102698.66;5069433;28;20461;-64
2022/03/26 10:37:51;;;;;;;61.58;30.38;;;;;;;24.73;22.65;102703.75;5054935;28;20073;-64
2022/03/26 10:40:22;;;;;;;62.65;31.40;;;;;;;23.71;24.51;102694.25;5073436;28;20454;-63
2022/03/26 10:42:58;;;;;;;54.22;26.67;;;;;;;22.65;25.63;102697.41;5072517;28;20040;-63
2022/03/26 10:45:26;;;;;;;59.47;26.40;;;;;;;22.05;26.20;102693.78;5073371;28;20044;-63
2022/03/26 10:47:56;;;;;;;58.03;28.95;;;;;;;21.61;26.80;102689.91;5046791;28;20036;-63
2022/03/26 10:50:25;;;;;;;57.67;26.30;;;;;;;22.33;26.00;102685.06;5073710;28;20055;-63
2022/03/26 10:52:55;;;;;;;49.38;22.08;;;;;;;22.96;25.53;102685.50;5071783;28;20044;-63
2022/03/26 10:55:22;;;;;;;50.75;23.65;;;;;;;23.00;25.34;102692.22;5072966;28;20071;-63
2022/03/26 10:57:50;;;;;;;51.63;22.00;;;;;;;23.48;25.17;102689.00;5062202;28;20107;-63
2022/03/26 11:00:19;;;;;;;53.05;22.02;;;;;;;23.33;24.21;102694.50;5094237;28;20040;-64
2022/03/26 11:02:46;;;;;;;46.90;21.98;;;;;;;22.74;24.62;102684.59;5083348;28;20185;-63
2022/03/26 11:05:25;;;;;;;45.47;21.83;;;;;;;23.08;24.55;102681.28;5071401;28;20067;-63
2022/03/26 11:07:53;;;;;;;53.58;22.50;;;;;;;22.59;25.13;102673.78;5097576;28;20144;-62
2022/03/26 11:10:24;;;;;;;48.00;23.02;;;;;;;22.13;25.84;102674.75;5086313;28;20125;-62
2022/03/26 11:12:51;;;;;;;51.80;24.70;;;;;;;22.19;26.25;102668.63;5053556;28;20056;-62
2022/03/26 11:15:39;;;;;;;52.80;25.85;;;;;;;21.98;25.86;102674.75;5068288;28;20068;-63